Portada
METAR-TAF:

METAR-TAF

Aeropuertos :

Murray, Kentucky, Estados Unidos

latitud: 36-39-52N, longitud: 088-22-22W, altitud: 176 m

Observación

El informe se hizo hace 2 horas y 1 minutos, a las 09:35 UTC
Viento 12 kt del norte
Temperatura 3°C
Humedad 60%
Presión 1030 hPa
Visibilidad: 16.1 km
Cielo cubierto a una altura de 7000 ft

METAR: KCEY 200935Z AUTO 01012KT 10SM OVC070 03/M04 A3041 RMK AO1

Hora: 05:36 (11:36 UTC)


TAF: falta

Observaciones y pronósticos meteorológicos de más de 4000 aeropuertos (mensajes METAR y TAF).

Los puntos amarillos y rojos representan las estaciones disponibles.

Ponga el ratón en el punto deseado para ver el nombre de la estación.

Haga clic para ver las observaciones y los pronósticos meteorológicos.

Para cambiar el mapa : haga clic en los botones verdes con una cruz de color negro para hacer un zoom, en el botón verde con un guión para alejar o en las flechas verdes para mapas adyacentes.


METAR-TAF: